createdAt,value
2022-12-06T00:05:46.748Z,2.60
2022-12-06T00:15:50.737Z,2.60
2022-12-06T00:25:55.944Z,2.60
2022-12-06T00:36:01.503Z,2.60
2022-12-06T00:46:09.434Z,2.60
2022-12-06T00:56:13.586Z,2.60
2022-12-06T01:06:22.991Z,2.60
2022-12-06T01:16:30.008Z,2.70
2022-12-06T01:26:37.478Z,2.70
2022-12-06T01:36:41.255Z,2.60
2022-12-06T01:46:47.020Z,2.60
2022-12-06T01:56:52.882Z,2.60
2022-12-06T02:06:59.276Z,2.70
2022-12-06T02:17:29.591Z,2.70
2022-12-06T02:27:59.868Z,2.70
2022-12-06T02:38:13.213Z,2.70
2022-12-06T02:48:18.767Z,2.70
2022-12-06T02:58:23.917Z,2.70
2022-12-06T03:08:41.146Z,2.60
2022-12-06T03:18:53.667Z,2.60
2022-12-06T03:29:00.044Z,2.60
2022-12-06T03:39:08.081Z,2.70
2022-12-06T03:49:16.857Z,2.80
2022-12-06T03:59:22.096Z,2.80
2022-12-06T04:09:43.475Z,2.80
2022-12-06T04:19:52.079Z,2.80
2022-12-06T04:30:13.735Z,2.90
2022-12-06T04:40:19.121Z,2.80
2022-12-06T04:50:23.011Z,2.80
2022-12-06T05:00:28.491Z,2.80
2022-12-06T05:10:33.215Z,2.80
2022-12-06T05:20:38.691Z,2.70
2022-12-06T05:30:42.485Z,2.70
2022-12-06T05:40:48.583Z,2.60
2022-12-06T05:50:53.885Z,2.60
2022-12-06T06:00:59.180Z,2.70
2022-12-06T06:11:03.104Z,2.60
2022-12-06T06:21:08.463Z,2.70
2022-12-06T06:31:12.998Z,2.70
2022-12-06T06:41:18.365Z,2.70
2022-12-06T06:51:22.573Z,2.70
2022-12-06T07:01:28.856Z,2.70
2022-12-06T07:11:32.634Z,2.70
2022-12-06T07:21:38.025Z,2.60
2022-12-06T07:31:41.712Z,2.70
2022-12-06T07:42:04.293Z,2.80
2022-12-06T07:52:23.838Z,2.80
2022-12-06T08:02:30.155Z,2.90
2022-12-06T08:12:34.173Z,2.90
2022-12-06T08:22:39.294Z,3.10
2022-12-06T08:32:42.930Z,3.30
2022-12-06T08:42:47.738Z,3.30
2022-12-06T08:52:51.912Z,3.40
2022-12-06T09:02:57.134Z,3.40
2022-12-06T09:13:00.910Z,3.30
2022-12-06T09:23:05.993Z,3.30
2022-12-06T09:33:09.703Z,3.30
2022-12-06T09:43:35.369Z,3.30
2022-12-06T09:53:58.304Z,3.50
2022-12-06T10:04:28.617Z,3.40
2022-12-06T10:14:56.550Z,3.40
2022-12-06T10:25:10.610Z,3.50
2022-12-06T10:35:21.572Z,3.50
2022-12-06T10:45:50.609Z,3.50
2022-12-06T10:55:59.987Z,3.70
2022-12-06T11:06:11.817Z,3.90
2022-12-06T11:16:20.561Z,4.10
2022-12-06T11:26:37.520Z,4.10
2022-12-06T11:36:41.293Z,4.10
2022-12-06T11:46:46.607Z,4.00
2022-12-06T11:56:51.512Z,3.90
2022-12-06T12:07:01.361Z,4.00
2022-12-06T12:17:06.145Z,3.90
2022-12-06T12:27:36.593Z,3.80
2022-12-06T12:37:40.457Z,3.80
2022-12-06T12:47:59.645Z,3.90
2022-12-06T12:58:03.612Z,4.00
2022-12-06T13:08:18.198Z,3.90
2022-12-06T13:18:27.162Z,4.00
2022-12-06T13:28:36.980Z,4.10
2022-12-06T13:38:42.601Z,3.70
2022-12-06T13:48:56.195Z,3.60
2022-12-06T13:59:03.546Z,3.40
2022-12-06T14:09:13.198Z,3.20
2022-12-06T14:19:20.265Z,3.50
2022-12-06T14:29:26.471Z,2.90
2022-12-06T14:39:32.698Z,2.90
2022-12-06T14:49:55.474Z,2.60
2022-12-06T15:00:20.710Z,2.40
2022-12-06T15:10:32.535Z,2.30
2022-12-06T15:20:36.232Z,2.20
2022-12-06T15:30:41.382Z,2.20
2022-12-06T15:40:47.347Z,2.10
2022-12-06T15:50:52.608Z,1.90
2022-12-06T16:00:57.674Z,1.60
2022-12-06T16:11:11.862Z,1.40
2022-12-06T16:21:22.369Z,1.30
2022-12-06T16:31:28.181Z,1.30
2022-12-06T16:41:35.972Z,1.30
2022-12-06T16:51:41.365Z,1.40
2022-12-06T17:01:50.215Z,1.60
2022-12-06T17:12:06.351Z,1.70
2022-12-06T17:22:11.830Z,1.80
2022-12-06T17:32:17.939Z,1.90
2022-12-06T17:42:39.886Z,1.90
2022-12-06T17:52:44.918Z,2.00
2022-12-06T18:02:48.947Z,2.00
2022-12-06T18:12:53.992Z,1.90
2022-12-06T18:22:57.757Z,2.00
2022-12-06T18:33:04.297Z,1.90
2022-12-06T18:43:07.986Z,1.80
2022-12-06T18:53:13.050Z,1.70
2022-12-06T19:03:17.104Z,1.70
2022-12-06T19:13:22.168Z,1.60
2022-12-06T19:23:28.915Z,1.60
2022-12-06T19:33:38.381Z,1.60
2022-12-06T19:44:00.212Z,1.50
2022-12-06T19:54:07.158Z,1.50
2022-12-06T20:04:15.073Z,1.40
2022-12-06T20:14:20.106Z,1.30
2022-12-06T20:24:24.306Z,1.40
2022-12-06T20:34:34.050Z,1.40
2022-12-06T20:44:38.499Z,1.50
2022-12-06T20:54:43.693Z,1.40
2022-12-06T21:04:47.475Z,1.40
2022-12-06T21:14:52.563Z,1.40
2022-12-06T21:24:56.749Z,1.30
2022-12-06T21:35:01.741Z,1.30
2022-12-06T21:45:06.226Z,1.30
2022-12-06T21:55:12.770Z,1.20
2022-12-06T22:05:16.686Z,1.30
2022-12-06T22:15:21.881Z,1.20
2022-12-06T22:25:25.876Z,1.20
2022-12-06T22:35:31.150Z,1.30
2022-12-06T22:45:35.320Z,1.30
2022-12-06T22:55:40.304Z,1.30
2022-12-06T23:05:44.063Z,1.30
2022-12-06T23:15:57.506Z,1.30
2022-12-06T23:26:06.061Z,1.30
2022-12-06T23:36:15.043Z,1.30
2022-12-06T23:46:22.660Z,1.30
2022-12-06T23:56:30.938Z,1.20
